Time;durP1;ratioP1;P1;durP2;ratioP2;P2;SDS_P1;SDS_P2;PMS_P1;PMS_P2;Temp;Humidity;BMP_temperature;BMP_pressure;BME280_temperature;BME280_humidity;BME280_pressure;Samples;Min_cycle;Max_cycle;Signal;HPM_P1;HPM_P2
2022/10/30 00:00:15;;;;;;;15.50;3.53;;;;;;;;;;5016081;28;20052;-60
2022/10/30 00:02:41;;;;;;;19.73;3.45;;;;;;;;;;5015707;28;20038;-60
2022/10/30 00:05:08;;;;;;;23.25;3.30;;;;;;;;;;5016034;28;20030;-59
2022/10/30 00:07:34;;;;;;;30.75;3.33;;;;;;;;;;5015727;28;20409;-60
2022/10/30 00:10:00;;;;;;;17.83;3.25;;;;;;;;;;5033345;28;20183;-60
2022/10/30 00:12:26;;;;;;;26.85;4.85;;;;;;;;;;5015746;28;20462;-60
2022/10/30 00:14:52;;;;;;;21.30;4.85;;;;;;;;;;5026637;28;20037;-60
2022/10/30 00:17:18;;;;;;;23.50;4.32;;;;;;;;;;5035005;28;20031;-60
2022/10/30 00:19:44;;;;;;;24.77;4.03;;;;;;;;;;5035636;28;20026;-59
2022/10/30 00:22:10;;;;;;;20.25;4.13;;;;;;;;;;5017194;28;20033;-60
2022/10/30 00:24:36;;;;;;;30.33;4.10;;;;;;;;;;5030219;28;20061;-60
2022/10/30 00:27:03;;;;;;;22.27;3.67;;;;;;;;;;5035404;28;20112;-60
2022/10/30 00:29:29;;;;;;;24.80;3.92;;;;;;;;;;5033605;28;20029;-60
2022/10/30 00:31:55;;;;;;;25.10;3.50;;;;;;;;;;5035113;28;20029;-60
2022/10/30 00:34:21;;;;;;;20.55;3.63;;;;;;;;;;5035137;28;20505;-60
2022/10/30 00:36:47;;;;;;;22.60;3.40;;;;;;;;;;5033871;28;20034;-60
2022/10/30 00:39:15;;;;;;;15.40;3.45;;;;;;;;;;5026141;28;20027;-60
2022/10/30 00:41:41;;;;;;;23.70;3.08;;;;;;;;;;5016408;28;20435;-60
2022/10/30 00:44:26;;;;;;;20.50;3.33;;;;;;;;;;5015457;28;20088;-60
2022/10/30 00:46:52;;;;;;;23.80;3.63;;;;;;;;;;5013737;28;20096;-60
2022/10/30 00:49:20;;;;;;;12.93;2.70;;;;;;;;;;5013756;28;20034;-60
2022/10/30 00:51:49;;;;;;;17.20;2.38;;;;;;;;;;5014986;28;20038;-60
2022/10/30 00:54:15;;;;;;;20.55;3.13;;;;;;;;;;5015125;28;20041;-60
2022/10/30 00:56:42;;;;;;;15.13;2.80;;;;;;;;;;5014854;28;20026;-59
2022/10/30 00:59:10;;;;;;;17.95;3.20;;;;;;;;;;5015160;28;20397;-60
2022/10/30 01:01:38;;;;;;;28.83;4.63;;;;;;;;;;5014475;28;20030;-60
2022/10/30 01:04:05;;;;;;;22.52;5.20;;;;;;;;;;5014898;28;20052;-60
2022/10/30 01:06:36;;;;;;;19.30;3.55;;;;;;;;;;5012474;28;20058;-60
2022/10/30 01:09:03;;;;;;;20.67;3.45;;;;;;;;;;5032812;28;20117;-59
2022/10/30 01:11:30;;;;;;;17.95;2.97;;;;;;;;;;5017535;28;20499;-60
2022/10/30 01:13:58;;;;;;;20.80;3.08;;;;;;;;;;5014682;28;20049;-60
2022/10/30 01:16:24;;;;;;;17.15;3.35;;;;;;;;;;5013084;28;20037;-60
2022/10/30 01:18:54;;;;;;;19.27;4.85;;;;;;;;;;5013499;28;20034;-60
2022/10/30 01:21:37;;;;;;;20.73;3.33;;;;;;;;;;5014732;28;20099;-60
2022/10/30 01:24:03;;;;;;;21.95;3.22;;;;;;;;;;5017443;28;20029;-60
2022/10/30 01:26:29;;;;;;;25.05;3.17;;;;;;;;;;5018953;28;20506;-60
2022/10/30 01:28:58;;;;;;;20.27;2.75;;;;;;;;;;5013068;28;20034;-60
2022/10/30 01:31:47;;;;;;;13.77;2.88;;;;;;;;;;5014060;28;20030;-60
2022/10/30 01:34:19;;;;;;;16.83;2.50;;;;;;;;;;5051574;28;20045;-59
2022/10/30 01:36:54;;;;;;;10.77;3.03;;;;;;;;;;5051711;28;20033;-60
2022/10/30 01:39:23;;;;;;;23.77;3.45;;;;;;;;;;5034830;28;20552;-60
2022/10/30 01:41:49;;;;;;;20.10;3.83;;;;;;;;;;5034583;28;20032;-60
2022/10/30 01:44:20;;;;;;;21.65;3.25;;;;;;;;;;5023457;28;20037;-60
2022/10/30 01:46:52;;;;;;;14.85;3.25;;;;;;;;;;5026029;28;20385;-60
2022/10/30 01:49:38;;;;;;;25.77;3.70;;;;;;;;;;5034473;28;20044;-59
2022/10/30 01:52:19;;;;;;;19.05;3.40;;;;;;;;;;5051424;28;20056;-60
2022/10/30 01:54:52;;;;;;;17.90;3.30;;;;;;;;;;5051160;28;20493;-60
2022/10/30 01:57:24;;;;;;;32.08;4.43;;;;;;;;;;5046956;28;20831;-60
2022/10/30 01:59:56;;;;;;;24.67;2.80;;;;;;;;;;5034488;28;20485;-60
2022/10/30 02:02:23;;;;;;;33.10;5.72;;;;;;;;;;5034670;28;20437;-59
2022/10/30 02:04:49;;;;;;;21.80;2.92;;;;;;;;;;5033987;28;20052;-60
2022/10/30 02:07:16;;;;;;;12.75;2.60;;;;;;;;;;5034550;28;20029;-60
2022/10/30 02:09:47;;;;;;;32.25;3.92;;;;;;;;;;5034246;28;20055;-59
2022/10/30 02:12:15;;;;;;;19.63;3.38;;;;;;;;;;5010537;28;20482;-60
2022/10/30 02:14:46;;;;;;;26.52;4.45;;;;;;;;;;4993425;28;20030;-60
2022/10/30 02:17:13;;;;;;;30.58;4.20;;;;;;;;;;4993993;28;20387;-60
2022/10/30 02:19:41;;;;;;;23.73;3.92;;;;;;;;;;5016125;28;20025;-60
2022/10/30 02:22:07;;;;;;;27.08;3.53;;;;;;;;;;5033239;28;20022;-60
2022/10/30 02:24:34;;;;;;;25.25;4.70;;;;;;;;;;5031922;28;20029;-60
2022/10/30 02:27:00;;;;;;;21.52;3.60;;;;;;;;;;5031926;28;20033;-60
2022/10/30 02:29:26;;;;;;;27.73;3.95;;;;;;;;;;5031507;28;20034;-59
2022/10/30 02:31:53;;;;;;;31.40;5.07;;;;;;;;;;5033206;28;20113;-60
2022/10/30 02:34:19;;;;;;;27.90;5.00;;;;;;;;;;5030529;28;20377;-60
2022/10/30 02:36:45;;;;;;;26.98;4.07;;;;;;;;;;5013217;28;20429;-59
2022/10/30 02:39:11;;;;;;;20.50;4.25;;;;;;;;;;5015945;28;20014;-60
2022/10/30 02:41:37;;;;;;;22.95;3.75;;;;;;;;;;5024353;28;20026;-60
2022/10/30 02:44:05;;;;;;;26.05;4.15;;;;;;;;;;5012812;28;20486;-60
2022/10/30 02:46:32;;;;;;;25.08;5.38;;;;;;;;;;5011865;28;20402;-60
2022/10/30 02:48:59;;;;;;;25.27;4.68;;;;;;;;;;5011933;28;20033;-60
2022/10/30 02:51:26;;;;;;;25.73;3.95;;;;;;;;;;5030124;28;20036;-60
2022/10/30 02:53:53;;;;;;;28.73;4.45;;;;;;;;;;5031242;28;20033;-60
2022/10/30 02:56:19;;;;;;;26.85;6.85;;;;;;;;;;5031539;28;20022;-60
2022/10/30 02:58:45;;;;;;;21.73;4.35;;;;;;;;;;5011363;28;20402;-60
2022/10/30 03:01:13;;;;;;;29.52;5.18;;;;;;;;;;5011424;28;20022;-60
2022/10/30 03:03:39;;;;;;;26.10;4.43;;;;;;;;;;5012568;28;20034;-60
2022/10/30 03:06:07;;;;;;;28.25;4.15;;;;;;;;;;5020023;28;20030;-60
2022/10/30 03:08:34;;;;;;;27.45;4.20;;;;;;;;;;5011400;28;20032;-60
2022/10/30 03:11:04;;;;;;;20.40;3.70;;;;;;;;;;5012365;28;20048;-60
2022/10/30 03:13:31;;;;;;;19.05;3.42;;;;;;;;;;5012271;28;20054;-60
2022/10/30 03:16:01;;;;;;;24.73;3.75;;;;;;;;;;5012272;28;20481;-60
2022/10/30 03:18:30;;;;;;;25.85;3.72;;;;;;;;;;5011326;28;20032;-60
2022/10/30 03:20:59;;;;;;;18.10;3.42;;;;;;;;;;5010863;28;20548;-60
2022/10/30 03:23:26;;;;;;;34.83;3.38;;;;;;;;;;5012618;28;20034;-60
2022/10/30 03:25:56;;;;;;;26.13;4.07;;;;;;;;;;5010564;28;20125;-60
2022/10/30 03:28:25;;;;;;;17.50;3.47;;;;;;;;;;5012730;28;20056;-60
2022/10/30 03:30:57;;;;;;;25.50;3.38;;;;;;;;;;5007799;28;20677;-60
2022/10/30 03:33:23;;;;;;;26.90;4.32;;;;;;;;;;5005311;28;20023;-59
2022/10/30 03:35:50;;;;;;;20.17;3.67;;;;;;;;;;5009145;28;20023;-60
2022/10/30 03:38:16;;;;;;;20.05;4.00;;;;;;;;;;5000681;28;20045;-60
2022/10/30 03:40:43;;;;;;;21.15;4.18;;;;;;;;;;5010740;28;20017;-60
2022/10/30 03:43:09;;;;;;;20.23;3.58;;;;;;;;;;5013885;28;20383;-60
2022/10/30 03:45:36;;;;;;;28.50;3.92;;;;;;;;;;5007784;28;20633;-60
2022/10/30 03:48:05;;;;;;;29.70;4.40;;;;;;;;;;5014526;28;20037;-60
2022/10/30 03:50:32;;;;;;;16.55;3.22;;;;;;;;;;5001112;28;20026;-60
2022/10/30 03:52:59;;;;;;;25.40;3.42;;;;;;;;;;5011734;28;20030;-60
2022/10/30 03:55:26;;;;;;;28.35;4.15;;;;;;;;;;5006151;28;20047;-60
2022/10/30 03:57:53;;;;;;;29.88;4.78;;;;;;;;;;5011745;28;20557;-60
2022/10/30 04:00:20;;;;;;;19.80;4.40;;;;;;;;;;5008969;28;20022;-60
2022/10/30 04:02:56;;;;;;;25.75;4.25;;;;;;;;;;5013190;28;20055;-60
2022/10/30 04:05:24;;;;;;;25.38;3.90;;;;;;;;;;4998731;28;20402;-60
2022/10/30 04:07:56;;;;;;;23.73;4.88;;;;;;;;;;5007063;28;20041;-60
2022/10/30 04:10:24;;;;;;;21.35;4.05;;;;;;;;;;5004056;28;20182;-60
2022/10/30 04:12:51;;;;;;;20.20;3.67;;;;;;;;;;5010130;28;20492;-60
2022/10/30 04:15:18;;;;;;;22.50;4.22;;;;;;;;;;5004612;28;20117;-60
2022/10/30 04:17:51;;;;;;;24.25;4.13;;;;;;;;;;5006698;28;20022;-60
2022/10/30 04:20:18;;;;;;;26.08;3.85;;;;;;;;;;5013812;28;20038;-60
2022/10/30 04:22:44;;;;;;;24.15;3.70;;;;;;;;;;5015650;28;20025;-60
2022/10/30 04:25:12;;;;;;;26.75;4.05;;;;;;;;;;5007122;28;20092;-60
2022/10/30 04:27:42;;;;;;;30.40;3.45;;;;;;;;;;5013645;28;20038;-60
2022/10/30 04:30:09;;;;;;;33.70;4.50;;;;;;;;;;5012167;28;20029;-60
2022/10/30 04:32:35;;;;;;;18.27;3.47;;;;;;;;;;5002122;28;20013;-60
2022/10/30 04:35:03;;;;;;;21.65;4.05;;;;;;;;;;5000223;28;20041;-60
2022/10/30 04:37:29;;;;;;;25.17;3.40;;;;;;;;;;5009087;28;20026;-60
2022/10/30 04:39:56;;;;;;;18.27;3.78;;;;;;;;;;4997832;28;20027;-60
2022/10/30 04:42:25;;;;;;;29.67;3.53;;;;;;;;;;5005174;28;20018;-60
2022/10/30 04:44:53;;;;;;;29.33;3.95;;;;;;;;;;4994646;28;20027;-60
2022/10/30 04:47:19;;;;;;;27.15;4.22;;;;;;;;;;5001451;28;20022;-60
2022/10/30 04:49:45;;;;;;;23.90;6.00;;;;;;;;;;5003202;28;20038;-60
2022/10/30 04:52:11;;;;;;;25.10;3.80;;;;;;;;;;5000320;28;20026;-60
2022/10/30 04:54:37;;;;;;;22.13;3.42;;;;;;;;;;5006329;28;20033;-60
2022/10/30 04:57:03;;;;;;;28.67;3.50;;;;;;;;;;5012370;28;20018;-60
2022/10/30 04:59:30;;;;;;;26.60;4.55;;;;;;;;;;5012592;28;20033;-60
2022/10/30 05:01:56;;;;;;;23.10;4.05;;;;;;;;;;5011676;28;20105;-60
2022/10/30 05:04:22;;;;;;;39.63;5.50;;;;;;;;;;5013702;28;20073;-60
2022/10/30 05:06:48;;;;;;;25.45;4.07;;;;;;;;;;5012209;28;20045;-60
2022/10/30 05:09:15;;;;;;;31.40;4.28;;;;;;;;;;5011978;28;20418;-60
2022/10/30 05:11:41;;;;;;;26.80;4.10;;;;;;;;;;5012077;28;20113;-60
2022/10/30 05:14:08;;;;;;;26.33;4.15;;;;;;;;;;5012118;28;20534;-60
2022/10/30 05:16:34;;;;;;;27.33;4.82;;;;;;;;;;5013426;28;20025;-60
2022/10/30 05:19:02;;;;;;;17.92;3.50;;;;;;;;;;5011701;28;20113;-60
2022/10/30 05:21:29;;;;;;;32.58;4.63;;;;;;;;;;5012195;28;20026;-60
2022/10/30 05:23:55;;;;;;;22.13;4.35;;;;;;;;;;5010059;28;20027;-60
2022/10/30 05:26:22;;;;;;;24.25;4.10;;;;;;;;;;5006294;28;20033;-60
2022/10/30 05:28:50;;;;;;;24.45;3.85;;;;;;;;;;5011888;28;20457;-60
2022/10/30 05:31:17;;;;;;;32.38;3.95;;;;;;;;;;5000136;28;20077;-60
2022/10/30 05:34:01;;;;;;;31.83;3.72;;;;;;;;;;5011721;28;20136;-60
2022/10/30 05:36:28;;;;;;;19.70;3.47;;;;;;;;;;5012736;28;20028;-60
2022/10/30 05:38:54;;;;;;;27.25;4.97;;;;;;;;;;5008989;28;20031;-60
2022/10/30 05:41:36;;;;;;;19.98;2.90;;;;;;;;;;5009135;28;20041;-60
2022/10/30 05:44:02;;;;;;;23.27;4.22;;;;;;;;;;5015417;28;20567;-60
2022/10/30 05:46:31;;;;;;;28.48;4.10;;;;;;;;;;5004659;28;20089;-60
2022/10/30 05:49:05;;;;;;;24.60;3.13;;;;;;;;;;4998529;28;20433;-60
2022/10/30 05:51:32;;;;;;;14.68;3.35;;;;;;;;;;5014830;28;20954;-60
2022/10/30 05:54:03;;;;;;;21.73;4.35;;;;;;;;;;5031198;28;20559;-60
2022/10/30 05:56:31;;;;;;;31.48;4.65;;;;;;;;;;5012640;28;20044;-60
2022/10/30 05:58:58;;;;;;;19.77;3.75;;;;;;;;;;5012048;28;20383;-60
2022/10/30 06:01:24;;;;;;;15.38;2.72;;;;;;;;;;5013144;28;20036;-60
2022/10/30 06:03:54;;;;;;;18.38;3.53;;;;;;;;;;5012539;28;20474;-60
2022/10/30 06:06:21;;;;;;;23.25;4.07;;;;;;;;;;5012137;28;20049;-60
2022/10/30 06:08:47;;;;;;;30.00;4.00;;;;;;;;;;5024651;28;20102;-60
2022/10/30 06:11:30;;;;;;;21.17;3.58;;;;;;;;;;5027424;28;20069;-60
2022/10/30 06:13:58;;;;;;;20.85;3.78;;;;;;;;;;5016808;28;20049;-60
2022/10/30 06:16:37;;;;;;;21.90;4.22;;;;;;;;;;5009885;28;20026;-60
2022/10/30 06:19:21;;;;;;;20.88;3.97;;;;;;;;;;5010089;28;20057;-60
2022/10/30 06:21:50;;;;;;;17.63;3.47;;;;;;;;;;5008170;28;20030;-60
2022/10/30 06:24:24;;;;;;;32.03;4.40;;;;;;;;;;5009712;28;20084;-60
2022/10/30 06:27:25;;;;;;;23.10;3.85;;;;;;;;;;5029752;28;20045;-60
2022/10/30 06:29:53;;;;;;;20.48;3.55;;;;;;;;;;5007801;28;20449;-60
2022/10/30 06:32:20;;;;;;;24.65;3.78;;;;;;;;;;5006138;28;20040;-60
2022/10/30 06:34:47;;;;;;;17.35;2.92;;;;;;;;;;5006950;28;20662;-62
2022/10/30 06:37:15;;;;;;;25.08;4.40;;;;;;;;;;5008843;28;20026;-62
2022/10/30 06:39:42;;;;;;;23.73;4.22;;;;;;;;;;5020409;28;20026;-63
2022/10/30 06:42:28;;;;;;;22.70;2.90;;;;;;;;;;5026372;28;20044;-60
2022/10/30 06:45:20;;;;;;;22.75;4.05;;;;;;;;;;5025431;28;20084;-61
2022/10/30 06:47:47;;;;;;;18.20;2.92;;;;;;;;;;5021677;28;20036;-61
2022/10/30 06:50:14;;;;;;;26.30;3.67;;;;;;;;;;5021424;28;20076;-61
2022/10/30 06:52:41;;;;;;;17.48;2.92;;;;;;;;;;5006525;28;20025;-61
2022/10/30 06:55:08;;;;;;;30.60;3.33;;;;;;;;;;5005276;28;20486;-61
2022/10/30 06:57:53;;;;;;;22.08;3.38;;;;;;;;;;5016091;28;20071;-61
2022/10/30 07:00:38;;;;;;;27.23;3.83;;;;;;;;;;5020139;28;20118;-61
2022/10/30 07:03:22;;;;;;;28.60;4.82;;;;;;;;;;5004401;28;20042;-61
2022/10/30 07:05:48;;;;;;;26.48;3.60;;;;;;;;;;5008072;28;20041;-61
2022/10/30 07:08:15;;;;;;;29.75;4.78;;;;;;;;;;5008908;28;20026;-61
2022/10/30 07:10:42;;;;;;;26.58;3.55;;;;;;;;;;5005897;28;20065;-61
2022/10/30 07:13:23;;;;;;;28.42;3.85;;;;;;;;;;5010810;28;20040;-61
2022/10/30 07:16:02;;;;;;;28.70;3.35;;;;;;;;;;5010873;28;20030;-61
2022/10/30 07:18:35;;;;;;;16.27;2.50;;;;;;;;;;5009571;28;20029;-61
2022/10/30 07:21:02;;;;;;;16.40;2.90;;;;;;;;;;5015675;28;20133;-61
2022/10/30 07:23:29;;;;;;;26.73;3.10;;;;;;;;;;5016296;28;20370;-61
2022/10/30 07:26:06;;;;;;;27.17;5.20;;;;;;;;;;5016707;28;20062;-61
2022/10/30 07:28:36;;;;;;;31.25;3.05;;;;;;;;;;5005010;28;20053;-61
2022/10/30 07:31:22;;;;;;;25.33;4.13;;;;;;;;;;5001767;28;20386;-61
2022/10/30 07:33:51;;;;;;;22.08;3.55;;;;;;;;;;5009781;28;20520;-61
2022/10/30 07:36:37;;;;;;;27.33;3.47;;;;;;;;;;5018403;28;20491;-61
2022/10/30 07:39:23;;;;;;;27.05;3.85;;;;;;;;;;5011381;28;20080;-61
2022/10/30 07:42:12;;;;;;;19.45;4.63;;;;;;;;;;5031577;28;20108;-61
2022/10/30 07:44:45;;;;;;;14.43;3.35;;;;;;;;;;5014027;28;20037;-61
2022/10/30 07:47:18;;;;;;;16.30;2.90;;;;;;;;;;5014990;28;20037;-61
2022/10/30 07:49:53;;;;;;;26.75;4.25;;;;;;;;;;5016404;28;20029;-60
2022/10/30 07:52:20;;;;;;;25.63;3.92;;;;;;;;;;5016931;28;20030;-61
2022/10/30 07:54:48;;;;;;;16.98;3.30;;;;;;;;;;5017426;28;20029;-61
2022/10/30 07:57:35;;;;;;;24.08;4.50;;;;;;;;;;4991720;28;20533;-61
2022/10/30 08:00:20;;;;;;;25.60;4.90;;;;;;;;;;4991465;28;20411;-61
2022/10/30 08:02:57;;;;;;;21.92;3.58;;;;;;;;;;4978558;28;20042;-61
2022/10/30 08:05:36;;;;;;;25.30;4.28;;;;;;;;;;4989798;28;20522;-61
2022/10/30 08:08:09;;;;;;;13.80;3.05;;;;;;;;;;4984612;28;20038;-60
2022/10/30 08:10:35;;;;;;;22.70;3.35;;;;;;;;;;4975754;28;20127;-61
2022/10/30 08:13:02;;;;;;;16.77;3.22;;;;;;;;;;4974898;28;20046;-61
2022/10/30 08:15:28;;;;;;;21.58;3.05;;;;;;;;;;4984398;28;20380;-61
2022/10/30 08:17:54;;;;;;;14.57;3.50;;;;;;;;;;4979041;28;20106;-61
2022/10/30 08:20:22;;;;;;;18.13;3.35;;;;;;;;;;4937190;28;20043;-61
2022/10/30 08:22:49;;;;;;;16.25;3.10;;;;;;;;;;4953863;28;20042;-61
2022/10/30 08:25:18;;;;;;;14.15;2.42;;;;;;;;;;4952375;28;20428;-61
2022/10/30 08:27:51;;;;;;;17.10;3.00;;;;;;;;;;4970423;28;20032;-61
2022/10/30 08:30:17;;;;;;;;;;;;;;;;;;4974257;28;20020;-61
2022/10/30 08:32:43;;;;;;;11.63;2.45;;;;;;;;;;4959225;28;20002;-61
2022/10/30 08:35:28;;;;;;;17.92;3.75;;;;;;;;;;5008035;28;20036;-61
2022/10/30 08:37:58;;;;;;;12.38;1.90;;;;;;;;;;5021038;28;20042;-61
2022/10/30 08:40:26;;;;;;;18.20;3.67;;;;;;;;;;5021081;28;20486;-61
2022/10/30 08:43:03;;;;;;;23.25;3.40;;;;;;;;;;5015274;28;20033;-61
2022/10/30 08:45:31;;;;;;;18.63;2.45;;;;;;;;;;5018399;28;20029;-61
2022/10/30 08:48:04;;;;;;;15.50;2.63;;;;;;;;;;5018265;28;20026;-61
2022/10/30 08:50:35;;;;;;;21.30;2.78;;;;;;;;;;5021778;28;20532;-61
2022/10/30 08:53:02;;;;;;;10.38;2.95;;;;;;;;;;5018052;28;20435;-61
2022/10/30 08:55:29;;;;;;;13.95;2.47;;;;;;;;;;5018058;28;20509;-61
2022/10/30 08:57:56;;;;;;;14.50;2.95;;;;;;;;;;5019606;28;20112;-61
2022/10/30 09:00:22;;;;;;;19.58;3.38;;;;;;;;;;5019834;28;20032;-61
2022/10/30 09:03:17;;;;;;;21.15;3.08;;;;;;;;;;5016925;28;20030;-61
2022/10/30 09:06:01;;;;;;;16.98;2.53;;;;;;;;;;5017509;28;20108;-61
2022/10/30 09:09:00;;;;;;;21.77;3.33;;;;;;;;;;5016701;28;20042;-61
2022/10/30 09:11:34;;;;;;;14.98;2.63;;;;;;;;;;5013471;28;20036;-61
2022/10/30 09:14:00;;;;;;;17.85;3.30;;;;;;;;;;5021925;28;20034;-61
2022/10/30 09:16:26;;;;;;;12.73;2.95;;;;;;;;;;5011761;28;20080;-61
2022/10/30 09:18:53;;;;;;;21.50;2.70;;;;;;;;;;5017556;28;20015;-61
2022/10/30 09:21:19;;;;;;;17.02;2.58;;;;;;;;;;5012674;28;20030;-61
2022/10/30 09:23:49;;;;;;;14.43;2.67;;;;;;;;;;5010919;28;20470;-61
2022/10/30 09:26:48;;;;;;;14.45;2.28;;;;;;;;;;5004620;28;20030;-61
2022/10/30 09:29:25;;;;;;;10.55;2.30;;;;;;;;;;5011672;28;20113;-62
2022/10/30 09:31:57;;;;;;;16.03;2.73;;;;;;;;;;5016312;28;20123;-61
2022/10/30 09:34:26;;;;;;;16.10;3.05;;;;;;;;;;5011942;28;20183;-61
2022/10/30 09:36:58;;;;;;;;;;;;;;;;;;5014497;28;20493;-61
2022/10/30 09:39:24;;;;;;;18.83;2.53;;;;;;;;;;5012966;28;19982;-61
2022/10/30 09:41:53;;;;;;;15.20;2.85;;;;;;;;;;5013595;28;20022;-61
2022/10/30 09:44:33;;;;;;;16.27;2.13;;;;;;;;;;5011659;28;20061;-61
2022/10/30 09:47:05;;;;;;;14.13;2.92;;;;;;;;;;5014106;28;20049;-61
2022/10/30 09:49:41;;;;;;;9.27;2.17;;;;;;;;;;5011710;28;20124;-61
2022/10/30 09:52:13;;;;;;;14.15;2.65;;;;;;;;;;5012040;28;20412;-61
2022/10/30 09:54:58;;;;;;;17.38;2.50;;;;;;;;;;5009913;28;20033;-61
2022/10/30 09:57:24;;;;;;;19.70;2.33;;;;;;;;;;5012559;28;20034;-61
2022/10/30 09:59:56;;;;;;;15.60;2.47;;;;;;;;;;5020693;28;20029;-61
2022/10/30 10:02:28;;;;;;;15.10;2.20;;;;;;;;;;5013969;28;20112;-62
2022/10/30 10:04:59;;;;;;;11.82;2.70;;;;;;;;;;5043733;28;20425;-61
2022/10/30 10:07:57;;;;;;;19.73;2.50;;;;;;;;;;5026568;28;20045;-62
2022/10/30 10:10:44;;;;;;;15.07;2.38;;;;;;;;;;5013359;28;20088;-61
2022/10/30 10:13:34;;;;;;;16.77;3.13;;;;;;;;;;5018829;28;20042;-61
2022/10/30 10:16:08;;;;;;;12.45;2.65;;;;;;;;;;5019069;28;20022;-61
2022/10/30 10:18:39;;;;;;;15.73;2.50;;;;;;;;;;5013692;28;20096;-61
2022/10/30 10:21:09;;;;;;;14.55;2.25;;;;;;;;;;5017918;28;20535;-61
2022/10/30 10:23:47;;;;;;;23.45;3.15;;;;;;;;;;5022225;28;20044;-61
2022/10/30 10:26:22;;;;;;;14.95;2.42;;;;;;;;;;5020251;28;20103;-62
2022/10/30 10:28:51;;;;;;;13.10;2.30;;;;;;;;;;5011710;28;20410;-62
2022/10/30 10:31:17;;;;;;;19.17;2.58;;;;;;;;;;5013975;28;20498;-61
2022/10/30 10:33:49;;;;;;;19.65;2.40;;;;;;;;;;5014189;28;20021;-61
2022/10/30 10:36:34;;;;;;;11.43;2.40;;;;;;;;;;5011004;28;20040;-61
2022/10/30 10:39:12;;;;;;;16.88;2.60;;;;;;;;;;5013042;28;20172;-61
2022/10/30 10:41:50;;;;;;;15.77;2.10;;;;;;;;;;5018903;28;20026;-61
2022/10/30 10:44:35;;;;;;;11.88;2.38;;;;;;;;;;5012615;28;20188;-60
2022/10/30 10:47:18;;;;;;;15.82;2.40;;;;;;;;;;5013637;28;20755;-61
2022/10/30 10:49:56;;;;;;;9.60;1.90;;;;;;;;;;5014326;28;20073;-61
2022/10/30 10:52:24;;;;;;;11.75;2.47;;;;;;;;;;5012799;28;20129;-61
2022/10/30 10:54:55;;;;;;;11.93;2.28;;;;;;;;;;5013288;28;20041;-60
2022/10/30 10:57:40;;;;;;;9.82;1.70;;;;;;;;;;5011291;28;20049;-60
2022/10/30 11:00:08;;;;;;;7.38;1.75;;;;;;;;;;5011992;28;20022;-61
2022/10/30 11:02:39;;;;;;;11.90;1.42;;;;;;;;;;5020903;28;20029;-61
2022/10/30 11:05:15;;;;;;;5.38;1.52;;;;;;;;;;5007283;28;20034;-61
2022/10/30 11:07:48;;;;;;;11.75;1.70;;;;;;;;;;5012114;28;20499;-61
2022/10/30 11:10:15;;;;;;;11.32;1.83;;;;;;;;;;5018420;28;20400;-61
2022/10/30 11:12:42;;;;;;;9.60;1.65;;;;;;;;;;5014786;28;20030;-61
2022/10/30 11:15:21;;;;;;;10.23;1.58;;;;;;;;;;5012054;28;20026;-61
2022/10/30 11:18:04;;;;;;;7.13;1.40;;;;;;;;;;5014123;28;20062;-61
2022/10/30 11:20:48;;;;;;;11.05;1.75;;;;;;;;;;5004438;28;20019;-61
2022/10/30 11:23:33;;;;;;;4.85;1.50;;;;;;;;;;4996163;28;20137;-62
2022/10/30 11:26:01;;;;;;;7.60;1.48;;;;;;;;;;5001056;28;20394;-62
2022/10/30 11:28:33;;;;;;;12.77;1.52;;;;;;;;;;5000182;28;20081;-61
2022/10/30 11:31:18;;;;;;;3.92;1.63;;;;;;;;;;4998022;28;20030;-62
2022/10/30 11:33:44;;;;;;;13.73;1.70;;;;;;;;;;5003049;28;20152;-62
2022/10/30 11:36:10;;;;;;;8.45;1.38;;;;;;;;;;5002572;28;20398;-62
2022/10/30 11:38:36;;;;;;;11.65;1.40;;;;;;;;;;5006240;28;20029;-61
2022/10/30 11:41:02;;;;;;;8.00;1.90;;;;;;;;;;5001904;28;20030;-62
2022/10/30 11:43:29;;;;;;;8.18;1.98;;;;;;;;;;5004241;28;20385;-62
2022/10/30 11:45:55;;;;;;;4.35;1.63;;;;;;;;;;4999276;28;20109;-61
2022/10/30 11:48:23;;;;;;;8.45;1.45;;;;;;;;;;5003138;28;20749;-61
2022/10/30 11:50:50;;;;;;;10.07;1.75;;;;;;;;;;5002547;28;20129;-62
2022/10/30 11:53:19;;;;;;;6.70;1.98;;;;;;;;;;5003786;28;20044;-61
2022/10/30 11:55:46;;;;;;;6.80;1.50;;;;;;;;;;4999990;28;20030;-61
2022/10/30 11:58:38;;;;;;;9.15;1.77;;;;;;;;;;5002324;28;20030;-62
2022/10/30 12:01:20;;;;;;;7.63;1.50;;;;;;;;;;5002359;28;20034;-61
2022/10/30 12:03:47;;;;;;;7.35;1.38;;;;;;;;;;5002612;28;20034;-62
2022/10/30 12:06:13;;;;;;;15.07;2.03;;;;;;;;;;5006110;28;20110;-62
2022/10/30 12:08:39;;;;;;;3.67;1.40;;;;;;;;;;5018722;28;20113;-61
2022/10/30 12:11:06;;;;;;;8.27;1.63;;;;;;;;;;5022172;28;20060;-62
2022/10/30 12:13:36;;;;;;;8.70;1.42;;;;;;;;;;5020081;28;20036;-61
2022/10/30 12:16:07;;;;;;;9.02;1.48;;;;;;;;;;5017016;28;20030;-61
2022/10/30 12:18:33;;;;;;;8.55;1.38;;;;;;;;;;5016336;28;20029;-62
2022/10/30 12:20:59;;;;;;;10.00;1.65;;;;;;;;;;5017092;28;20018;-61
2022/10/30 12:23:27;;;;;;;6.57;1.48;;;;;;;;;;5018161;28;20037;-61
2022/10/30 12:25:55;;;;;;;9.65;2.35;;;;;;;;;;5015375;28;20482;-61
2022/10/30 12:28:22;;;;;;;8.70;1.73;;;;;;;;;;5013339;28;20033;-62
2022/10/30 12:31:04;;;;;;;6.43;1.27;;;;;;;;;;5014188;28;20030;-61
2022/10/30 12:33:42;;;;;;;9.23;1.52;;;;;;;;;;5013868;28;20030;-62
2022/10/30 12:36:22;;;;;;;7.47;1.48;;;;;;;;;;5012875;28;20044;-62
2022/10/30 12:39:02;;;;;;;8.57;1.55;;;;;;;;;;5010416;28;20030;-62
2022/10/30 12:41:34;;;;;;;7.88;1.42;;;;;;;;;;5008871;28;20106;-61
2022/10/30 12:44:00;;;;;;;;;;;;;;;;;;5017271;28;20029;-62
2022/10/30 12:46:26;;;;;;;4.93;1.40;;;;;;;;;;5016477;28;19905;-62
2022/10/30 12:48:58;;;;;;;9.63;1.50;;;;;;;;;;5015613;28;20108;-62
2022/10/30 12:51:45;;;;;;;15.32;1.77;;;;;;;;;;5010026;28;20080;-62
2022/10/30 12:54:19;;;;;;;11.52;1.77;;;;;;;;;;5010904;28;20030;-62
2022/10/30 12:56:47;;;;;;;13.15;1.85;;;;;;;;;;5015281;28;20034;-62
2022/10/30 12:59:21;;;;;;;9.20;1.95;;;;;;;;;;5014638;28;20489;-62
2022/10/30 13:01:52;;;;;;;9.45;1.70;;;;;;;;;;5014101;28;20478;-62
2022/10/30 13:04:20;;;;;;;9.70;1.55;;;;;;;;;;5015589;28;20033;-62
2022/10/30 13:06:50;;;;;;;17.30;2.00;;;;;;;;;;5014757;28;20034;-62
2022/10/30 13:09:22;;;;;;;12.60;2.15;;;;;;;;;;5028528;28;20103;-62
2022/10/30 13:11:52;;;;;;;9.63;2.65;;;;;;;;;;5026142;28;20030;-62
2022/10/30 13:14:33;;;;;;;14.57;2.08;;;;;;;;;;5014273;28;20038;-62
2022/10/30 13:16:59;;;;;;;7.63;2.20;;;;;;;;;;5014955;28;20022;-62
2022/10/30 13:19:26;;;;;;;11.80;2.67;;;;;;;;;;5014888;28;20056;-62
2022/10/30 13:22:00;;;;;;;6.03;1.55;;;;;;;;;;5028028;28;20129;-63
2022/10/30 13:24:38;;;;;;;22.88;2.33;;;;;;;;;;5014676;28;20048;-62
2022/10/30 13:27:04;;;;;;;9.88;2.70;;;;;;;;;;5001236;28;20418;-62
2022/10/30 13:29:48;;;;;;;10.88;1.70;;;;;;;;;;5013736;28;20132;-62
2022/10/30 13:32:33;;;;;;;12.00;1.80;;;;;;;;;;5014292;28;20038;-62
2022/10/30 13:35:19;;;;;;;12.27;2.10;;;;;;;;;;5014122;28;20038;-62
2022/10/30 13:37:47;;;;;;;10.23;1.70;;;;;;;;;;5014503;28;20037;-61
2022/10/30 13:40:17;;;;;;;9.05;2.10;;;;;;;;;;5013966;28;20497;-61
2022/10/30 13:42:59;;;;;;;7.53;1.63;;;;;;;;;;5024605;28;20059;-62
2022/10/30 13:45:31;;;;;;;3.92;1.50;;;;;;;;;;5034039;28;20032;-62
2022/10/30 13:48:03;;;;;;;15.00;2.00;;;;;;;;;;5026104;28;20029;-62
2022/10/30 13:50:36;;;;;;;14.57;1.70;;;;;;;;;;5013913;28;20482;-61
2022/10/30 13:53:04;;;;;;;13.88;1.92;;;;;;;;;;5014193;28;20145;-62
2022/10/30 13:55:34;;;;;;;10.00;1.73;;;;;;;;;;5013248;28;20022;-62
2022/10/30 13:58:01;;;;;;;10.77;1.85;;;;;;;;;;5014185;28;20045;-62
2022/10/30 14:00:45;;;;;;;9.40;2.25;;;;;;;;;;5013823;28;20030;-62
2022/10/30 14:03:27;;;;;;;11.05;1.98;;;;;;;;;;5013930;28;20057;-62
2022/10/30 14:05:55;;;;;;;7.65;1.70;;;;;;;;;;5012872;28;20048;-62
2022/10/30 14:08:40;;;;;;;10.57;2.10;;;;;;;;;;5013693;28;20091;-62
2022/10/30 14:11:08;;;;;;;11.82;2.00;;;;;;;;;;5020789;28;20053;-62
2022/10/30 14:13:46;;;;;;;9.48;1.77;;;;;;;;;;5023290;28;20026;-62
2022/10/30 14:16:31;;;;;;;11.23;1.33;;;;;;;;;;5027507;28;20044;-62
2022/10/30 14:19:01;;;;;;;9.30;1.88;;;;;;;;;;5033235;28;20033;-62
2022/10/30 14:21:34;;;;;;;12.65;1.83;;;;;;;;;;5033146;28;20367;-62
2022/10/30 14:24:15;;;;;;;10.32;1.88;;;;;;;;;;5031247;28;20033;-62
2022/10/30 14:27:00;;;;;;;13.90;3.10;;;;;;;;;;5012980;28;20465;-62
2022/10/30 14:29:29;;;;;;;10.20;2.15;;;;;;;;;;5013471;28;20116;-62
2022/10/30 14:31:55;;;;;;;6.30;2.05;;;;;;;;;;5013648;28;20068;-62
2022/10/30 14:34:39;;;;;;;8.02;2.08;;;;;;;;;;5012535;28;20029;-62
2022/10/30 14:37:05;;;;;;;9.15;1.95;;;;;;;;;;5024786;28;20537;-62
2022/10/30 14:39:37;;;;;;;9.90;2.65;;;;;;;;;;5017641;28;20026;-62
2022/10/30 14:42:15;;;;;;;7.30;1.45;;;;;;;;;;5012982;28;20028;-62
2022/10/30 14:45:00;;;;;;;8.10;2.28;;;;;;;;;;5012797;28;20030;-62
2022/10/30 14:47:26;;;;;;;9.90;1.67;;;;;;;;;;5007662;28;20026;-61
2022/10/30 14:50:11;;;;;;;9.88;1.80;;;;;;;;;;5020468;28;20088;-62
2022/10/30 14:52:56;;;;;;;13.60;2.28;;;;;;;;;;5016328;28;20049;-62
2022/10/30 14:55:27;;;;;;;9.18;1.98;;;;;;;;;;5018733;28;20069;-62
2022/10/30 14:58:02;;;;;;;9.65;1.80;;;;;;;;;;5031631;28;20099;-62